createdAt,value
2024-02-08T00:06:42.474Z,1.50
2024-02-08T00:14:53.964Z,1.92
2024-02-08T00:20:03.631Z,2.05
2024-02-08T00:33:54.169Z,1.20
2024-02-08T00:44:44.116Z,1.58
2024-02-08T00:52:53.978Z,1.38
2024-02-08T01:00:23.762Z,1.25
2024-02-08T01:02:50.626Z,1.08
2024-02-08T01:05:20.876Z,1.00
2024-02-08T01:07:48.539Z,0.93
2024-02-08T01:10:15.908Z,0.98
2024-02-08T01:12:44.320Z,1.25
2024-02-08T01:15:15.994Z,1.15
2024-02-08T01:17:43.371Z,1.35
2024-02-08T01:25:33.888Z,1.58
2024-02-08T01:30:29.326Z,1.02
2024-02-08T01:35:38.767Z,1.20
2024-02-08T01:38:06.948Z,1.30
2024-02-08T01:40:36.539Z,1.10
2024-02-08T01:43:07.327Z,1.80
2024-02-08T01:45:36.000Z,1.10
2024-02-08T01:48:13.318Z,0.93
2024-02-08T01:50:53.048Z,1.40
2024-02-08T01:53:29.043Z,1.33
2024-02-08T01:55:58.438Z,1.23
2024-02-08T01:58:25.830Z,1.55
2024-02-08T02:00:54.563Z,2.28
2024-02-08T02:06:36.681Z,1.95
2024-02-08T02:09:04.191Z,1.98
2024-02-08T02:11:47.250Z,1.95
2024-02-08T02:14:18.788Z,2.08
2024-02-08T02:16:45.745Z,2.30
2024-02-08T02:19:12.702Z,2.40
2024-02-08T02:21:40.952Z,2.28
2024-02-08T02:24:09.398Z,2.17
2024-02-08T02:26:36.348Z,2.53
2024-02-08T02:31:33.919Z,2.88
2024-02-08T02:36:46.286Z,3.53
2024-02-08T02:41:49.106Z,3.55
2024-02-08T02:44:16.085Z,3.63
2024-02-08T03:01:20.883Z,4.18
2024-02-08T03:03:49.019Z,3.80
2024-02-08T03:06:16.757Z,3.60
2024-02-08T03:08:47.898Z,3.80
2024-02-08T03:16:42.595Z,3.40
2024-02-08T03:27:31.614Z,3.13
2024-02-08T03:29:58.873Z,3.90
2024-02-08T03:32:27.302Z,3.70
2024-02-08T03:34:55.523Z,3.28
2024-02-08T03:37:22.844Z,4.40
2024-02-08T03:39:49.889Z,3.47
2024-02-08T03:42:20.869Z,3.13
2024-02-08T03:52:53.754Z,2.50
2024-02-08T03:55:27.760Z,2.55
2024-02-08T03:58:08.092Z,2.75
2024-02-08T04:00:36.057Z,2.58
2024-02-08T04:03:12.030Z,2.47
2024-02-08T04:14:45.411Z,3.13
2024-02-08T04:23:21.930Z,2.80
2024-02-08T04:34:06.564Z,2.30
2024-02-08T04:36:51.924Z,1.83
2024-02-08T04:45:01.496Z,3.08
2024-02-08T04:47:47.083Z,4.35
2024-02-08T04:50:32.702Z,2.80
2024-02-08T04:53:18.004Z,1.80
2024-02-08T04:55:45.230Z,2.08
2024-02-08T04:58:28.453Z,1.90
2024-02-08T05:00:59.070Z,2.10
2024-02-08T05:03:26.134Z,2.60
2024-02-08T05:05:55.615Z,1.85
2024-02-08T05:08:23.380Z,2.38
2024-02-08T05:10:50.269Z,1.83
2024-02-08T05:13:27.532Z,2.00
2024-02-08T05:15:54.509Z,2.10
2024-02-08T05:20:58.889Z,4.82
2024-02-08T05:25:55.742Z,4.20
2024-02-08T05:28:23.905Z,4.03
2024-02-08T05:30:50.834Z,3.80
2024-02-08T05:33:18.445Z,4.18
2024-02-08T05:35:45.570Z,3.67
2024-02-08T05:40:52.851Z,5.00
2024-02-08T05:43:25.263Z,5.47
2024-02-08T05:46:00.405Z,7.13
2024-02-08T05:48:28.929Z,8.00
2024-02-08T05:50:58.391Z,5.95
2024-02-08T05:58:45.751Z,5.13
2024-02-08T06:03:45.595Z,5.47
2024-02-08T06:06:27.541Z,5.40
2024-02-08T06:08:57.806Z,5.78
2024-02-08T06:11:24.687Z,6.20
2024-02-08T06:14:00.994Z,5.35
2024-02-08T06:16:28.420Z,5.35
2024-02-08T06:18:59.223Z,5.40
2024-02-08T06:21:40.483Z,5.10
2024-02-08T06:24:25.405Z,5.88
2024-02-08T06:29:54.477Z,6.28
2024-02-08T06:32:36.060Z,6.38
2024-02-08T06:35:13.414Z,7.10
2024-02-08T06:37:47.087Z,6.80
2024-02-08T06:40:25.880Z,7.70
2024-02-08T06:43:19.980Z,7.28
2024-02-08T06:46:09.930Z,5.43
2024-02-08T06:54:23.803Z,11.00
2024-02-08T06:57:09.279Z,10.55
2024-02-08T06:59:55.912Z,12.93
2024-02-08T07:02:41.658Z,15.45
2024-02-08T07:05:41.127Z,14.30
2024-02-08T07:08:26.466Z,12.90
2024-02-08T07:11:12.077Z,12.43
2024-02-08T07:13:57.467Z,10.65
2024-02-08T07:16:42.748Z,8.88
2024-02-08T07:19:28.235Z,7.65
2024-02-08T07:22:13.922Z,5.53
2024-02-08T07:25:03.356Z,6.45
2024-02-08T07:27:32.466Z,5.78
2024-02-08T07:30:17.843Z,6.38
2024-02-08T07:35:45.417Z,6.68
2024-02-08T07:38:15.834Z,7.30
2024-02-08T07:43:18.149Z,7.82
2024-02-08T07:45:46.359Z,7.10
2024-02-08T07:50:49.367Z,7.38
2024-02-08T07:55:44.739Z,4.63
2024-02-08T08:00:51.500Z,5.28
2024-02-08T08:03:19.230Z,4.60
2024-02-08T08:05:47.056Z,4.32
2024-02-08T08:08:26.942Z,4.25
2024-02-08T08:10:58.430Z,3.75
2024-02-08T08:13:44.332Z,4.13
2024-02-08T08:18:58.502Z,4.05
2024-02-08T08:21:31.145Z,4.65
2024-02-08T08:27:22.481Z,4.53
2024-02-08T08:40:39.197Z,3.70
2024-02-08T08:43:21.390Z,3.15
2024-02-08T08:46:00.908Z,3.35
2024-02-08T08:48:31.950Z,4.05
2024-02-08T08:50:59.894Z,4.32
2024-02-08T08:53:37.398Z,4.35
2024-02-08T08:56:12.316Z,6.45
2024-02-08T08:58:40.954Z,4.65
2024-02-08T09:01:20.212Z,5.07
2024-02-08T09:06:27.968Z,4.05
2024-02-08T09:08:58.189Z,3.60
2024-02-08T09:11:28.505Z,4.65
2024-02-08T09:13:57.120Z,5.00
2024-02-08T09:16:24.955Z,5.80
2024-02-08T09:19:15.443Z,5.53
2024-02-08T09:21:42.984Z,6.50
2024-02-08T09:29:31.682Z,5.05
2024-02-08T09:32:01.444Z,4.50
2024-02-08T09:34:41.280Z,4.60
2024-02-08T09:39:53.890Z,5.28
2024-02-08T09:42:39.217Z,4.93
2024-02-08T09:45:19.898Z,4.65
2024-02-08T09:47:53.996Z,5.28
2024-02-08T09:50:39.172Z,5.30
2024-02-08T09:53:20.503Z,4.55
2024-02-08T09:55:49.394Z,4.53
2024-02-08T09:58:35.785Z,3.45
2024-02-08T10:06:57.349Z,3.88
2024-02-08T10:09:48.843Z,4.75
2024-02-08T10:12:22.202Z,4.20
2024-02-08T10:14:56.677Z,3.60
2024-02-08T10:20:15.055Z,3.83
2024-02-08T10:23:21.121Z,3.72
2024-02-08T10:26:06.438Z,3.20
2024-02-08T10:28:34.434Z,3.20
2024-02-08T10:34:11.199Z,3.35
2024-02-08T10:44:53.559Z,5.55
2024-02-08T10:47:28.863Z,4.80
2024-02-08T10:50:03.802Z,5.10
2024-02-08T10:58:10.060Z,5.72
2024-02-08T11:00:42.152Z,4.72
2024-02-08T11:03:16.442Z,5.15
2024-02-08T11:06:02.121Z,5.82
2024-02-08T11:08:35.804Z,7.18
2024-02-08T11:13:42.477Z,4.07
2024-02-08T11:16:23.857Z,5.43
2024-02-08T11:18:56.166Z,4.15
2024-02-08T11:21:30.059Z,4.53
2024-02-08T11:23:58.787Z,4.18
2024-02-08T11:26:28.533Z,3.03
2024-02-08T11:31:34.265Z,3.92
2024-02-08T11:36:37.658Z,3.17
2024-02-08T11:39:24.594Z,3.20
2024-02-08T11:41:51.537Z,2.90
2024-02-08T11:47:00.013Z,2.00
2024-02-08T11:49:36.836Z,2.67
2024-02-08T11:52:12.426Z,2.38
2024-02-08T11:54:39.865Z,2.10
2024-02-08T12:10:30.158Z,3.15
2024-02-08T12:21:24.848Z,6.90
2024-02-08T12:23:56.312Z,7.07
2024-02-08T12:31:35.517Z,5.20
2024-02-08T12:39:24.193Z,8.13
2024-02-08T12:41:52.111Z,6.35
2024-02-08T12:49:31.814Z,6.97
2024-02-08T12:57:16.371Z,12.93
2024-02-08T12:59:46.741Z,15.90
2024-02-08T13:02:19.893Z,8.05
2024-02-08T13:04:50.350Z,6.50
2024-02-08T13:07:18.240Z,6.97
2024-02-08T13:09:46.586Z,6.32
2024-02-08T13:12:20.844Z,5.22
2024-02-08T13:14:50.830Z,6.13
2024-02-08T13:17:22.015Z,4.82
2024-02-08T13:19:49.761Z,6.60
2024-02-08T13:22:22.421Z,5.97
2024-02-08T13:24:53.131Z,5.97
2024-02-08T13:27:30.293Z,6.40
2024-02-08T13:29:58.433Z,6.05
2024-02-08T13:32:29.913Z,6.10
2024-02-08T13:34:59.254Z,6.63
2024-02-08T13:37:28.617Z,5.97
2024-02-08T13:40:04.813Z,5.57
2024-02-08T13:45:15.881Z,6.05
2024-02-08T13:47:52.948Z,7.13
2024-02-08T13:50:20.242Z,7.25
2024-02-08T13:52:50.075Z,6.53
2024-02-08T13:55:20.330Z,8.07
2024-02-08T13:57:54.271Z,7.35
2024-02-08T14:00:28.393Z,9.00
2024-02-08T14:02:55.997Z,7.70
2024-02-08T14:05:25.271Z,8.55
2024-02-08T14:07:56.345Z,7.32
2024-02-08T14:10:29.605Z,5.40
2024-02-08T14:13:10.860Z,6.97
2024-02-08T14:15:47.274Z,6.78
2024-02-08T14:18:33.156Z,7.68
2024-02-08T14:21:02.894Z,8.95
2024-02-08T14:23:40.125Z,7.53
2024-02-08T14:26:20.831Z,8.52
2024-02-08T14:28:48.594Z,9.35
2024-02-08T14:31:16.412Z,8.57
2024-02-08T14:33:43.776Z,9.02
2024-02-08T14:36:11.542Z,10.25
2024-02-08T14:38:41.855Z,8.25
2024-02-08T14:41:20.974Z,8.23
2024-02-08T14:43:54.636Z,8.43
2024-02-08T14:46:27.930Z,9.00
2024-02-08T14:48:55.671Z,8.95
2024-02-08T14:51:25.293Z,9.30
2024-02-08T14:53:55.707Z,7.80
2024-02-08T14:56:22.827Z,7.43
2024-02-08T14:59:10.822Z,7.63
2024-02-08T15:01:41.413Z,10.20
2024-02-08T15:04:18.777Z,11.45
2024-02-08T15:07:04.920Z,13.55
2024-02-08T15:09:35.918Z,11.13
2024-02-08T15:12:06.249Z,10.18
2024-02-08T15:14:38.809Z,11.25
2024-02-08T15:17:09.394Z,9.57
2024-02-08T15:19:37.206Z,9.05
2024-02-08T15:22:20.101Z,12.23
2024-02-08T15:24:50.301Z,15.18
2024-02-08T15:27:19.886Z,21.25
2024-02-08T15:29:52.871Z,25.85
2024-02-08T15:32:31.988Z,25.67
2024-02-08T15:34:59.366Z,17.33
2024-02-08T15:37:30.371Z,21.65
2024-02-08T15:39:59.800Z,23.00
2024-02-08T15:42:38.822Z,21.38
2024-02-08T15:48:01.944Z,18.30
2024-02-08T15:50:43.675Z,16.98
2024-02-08T15:53:19.329Z,19.73
2024-02-08T15:55:57.637Z,19.55
2024-02-08T15:58:29.309Z,19.80
2024-02-08T16:01:19.347Z,20.73
2024-02-08T16:04:00.783Z,20.63
2024-02-08T16:06:48.826Z,21.88
2024-02-08T16:09:34.075Z,20.53
2024-02-08T16:12:15.571Z,19.88
2024-02-08T16:15:00.999Z,22.35
2024-02-08T16:17:38.520Z,26.48
2024-02-08T16:20:25.846Z,21.52
2024-02-08T16:22:56.948Z,22.35
2024-02-08T16:25:43.220Z,20.33
2024-02-08T16:28:18.298Z,19.13
2024-02-08T16:30:58.945Z,23.60
2024-02-08T16:33:49.818Z,26.13
2024-02-08T16:36:30.968Z,28.92
2024-02-08T16:39:09.585Z,30.27
2024-02-08T16:41:50.180Z,29.03
2024-02-08T16:44:23.683Z,47.85
2024-02-08T16:46:57.222Z,44.13
2024-02-08T16:49:29.211Z,46.97
2024-02-08T16:51:57.343Z,50.17
2024-02-08T16:54:27.711Z,45.13
2024-02-08T16:56:57.920Z,42.10
2024-02-08T17:04:51.187Z,47.47
2024-02-08T17:07:47.738Z,53.47
2024-02-08T17:10:37.418Z,45.80
2024-02-08T17:13:17.765Z,44.20
2024-02-08T17:16:01.316Z,37.13
2024-02-08T17:18:35.428Z,31.50
2024-02-08T17:21:16.618Z,28.15
2024-02-08T17:23:48.860Z,32.63
2024-02-08T17:26:34.085Z,32.55
2024-02-08T17:29:20.975Z,26.88
2024-02-08T17:31:49.311Z,24.60
2024-02-08T17:34:23.372Z,26.20
2024-02-08T17:36:55.488Z,23.33
2024-02-08T17:39:26.165Z,26.10
2024-02-08T17:41:53.831Z,27.40
2024-02-08T17:44:20.936Z,26.85
2024-02-08T17:46:54.149Z,27.52
2024-02-08T17:49:21.803Z,28.38
2024-02-08T17:51:51.102Z,29.33
2024-02-08T17:54:27.181Z,23.20
2024-02-08T17:56:59.049Z,27.00
2024-02-08T17:59:26.286Z,28.20
2024-02-08T18:01:57.198Z,29.50
2024-02-08T18:04:25.668Z,28.33
2024-02-08T18:07:00.048Z,22.52
2024-02-08T18:09:41.251Z,29.23
2024-02-08T18:12:14.863Z,24.10
2024-02-08T18:14:43.392Z,23.58
2024-02-08T18:17:20.333Z,18.55
2024-02-08T18:19:48.147Z,21.60
2024-02-08T18:22:19.477Z,23.60
2024-02-08T18:24:49.365Z,24.83
2024-02-08T18:27:23.750Z,26.20
2024-02-08T18:29:52.325Z,22.35
2024-02-08T18:32:20.383Z,22.42
2024-02-08T18:34:50.971Z,25.67
2024-02-08T18:37:26.604Z,25.42
2024-02-08T18:39:57.340Z,24.70
2024-02-08T18:42:28.644Z,24.70
2024-02-08T18:44:56.918Z,22.40
2024-02-08T18:47:30.073Z,22.92
2024-02-08T18:49:59.737Z,23.42
2024-02-08T18:52:26.874Z,24.98
2024-02-08T18:54:56.080Z,22.98
2024-02-08T18:57:23.688Z,26.65
2024-02-08T18:59:53.266Z,28.38
2024-02-08T19:02:26.118Z,21.73
2024-02-08T19:04:54.017Z,56.75
2024-02-08T19:07:21.945Z,33.42
2024-02-08T19:09:52.351Z,25.92
2024-02-08T19:12:19.502Z,31.02
2024-02-08T19:14:49.110Z,21.77
2024-02-08T19:17:20.571Z,18.50
2024-02-08T19:19:48.144Z,17.15
2024-02-08T19:22:17.305Z,19.58
2024-02-08T19:24:47.272Z,19.50
2024-02-08T19:27:15.211Z,20.05
2024-02-08T19:29:42.303Z,26.63
2024-02-08T19:32:10.295Z,29.77
2024-02-08T19:34:41.217Z,21.95
2024-02-08T19:37:08.765Z,23.17
2024-02-08T19:39:37.908Z,24.63
2024-02-08T19:42:19.662Z,21.13
2024-02-08T19:44:54.192Z,21.38
2024-02-08T19:47:23.530Z,20.85
2024-02-08T19:49:53.393Z,22.35
2024-02-08T19:52:22.566Z,24.08
2024-02-08T19:54:58.386Z,31.05
2024-02-08T19:57:34.534Z,30.27
2024-02-08T20:00:02.160Z,33.10
2024-02-08T20:05:06.335Z,24.23
2024-02-08T20:15:43.830Z,15.63
2024-02-08T20:18:15.791Z,16.63
2024-02-08T20:20:42.905Z,15.43
2024-02-08T20:23:17.452Z,14.02
2024-02-08T20:33:47.315Z,19.10
2024-02-08T20:36:15.068Z,17.77
2024-02-08T20:38:43.964Z,18.75
2024-02-08T20:44:07.274Z,20.60
2024-02-08T20:46:36.472Z,20.27
2024-02-08T20:49:05.003Z,18.30
2024-02-08T20:51:34.388Z,19.38
2024-02-08T20:54:04.509Z,16.58
2024-02-08T20:56:37.857Z,17.38
2024-02-08T21:01:53.456Z,21.63
2024-02-08T21:04:21.581Z,36.63
2024-02-08T21:09:35.998Z,26.90
2024-02-08T21:14:39.156Z,37.50
2024-02-08T21:17:06.536Z,26.30
2024-02-08T21:19:37.970Z,23.80
2024-02-08T21:22:05.325Z,30.17
2024-02-08T21:24:32.320Z,24.60
2024-02-08T21:26:59.999Z,25.73
2024-02-08T21:29:29.503Z,33.67
2024-02-08T21:31:57.689Z,43.53
2024-02-08T21:34:25.728Z,38.10
2024-02-08T21:36:53.144Z,41.50
2024-02-08T21:39:20.456Z,40.85
2024-02-08T21:44:25.449Z,36.15
2024-02-08T21:46:52.498Z,38.38
2024-02-08T21:49:27.104Z,40.05
2024-02-08T21:51:55.880Z,42.63
2024-02-08T22:00:27.841Z,45.28
2024-02-08T22:11:24.158Z,45.38
2024-02-08T22:16:34.795Z,39.45
2024-02-08T22:24:47.132Z,30.67
2024-02-08T22:38:20.928Z,24.25
2024-02-08T22:46:05.549Z,23.30
2024-02-08T22:48:32.704Z,26.50
2024-02-08T22:50:59.992Z,27.35
2024-02-08T22:53:28.377Z,28.88
2024-02-08T22:58:37.885Z,21.77
2024-02-08T23:01:25.048Z,20.15
2024-02-08T23:03:53.203Z,23.25
2024-02-08T23:06:20.917Z,24.02
2024-02-08T23:08:48.250Z,23.95
2024-02-08T23:11:15.250Z,24.75
2024-02-08T23:13:43.663Z,26.40
2024-02-08T23:24:03.515Z,28.73
2024-02-08T23:26:30.556Z,28.27
2024-02-08T23:28:58.461Z,30.60
2024-02-08T23:31:29.265Z,29.05
2024-02-08T23:34:05.909Z,27.55
2024-02-08T23:36:35.689Z,27.63
2024-02-08T23:41:38.294Z,27.75
2024-02-08T23:44:06.010Z,28.80
2024-02-08T23:51:50.681Z,26.70
2024-02-08T23:54:17.621Z,23.95
2024-02-08T23:56:45.214Z,26.77
2024-02-08T23:59:12.617Z,26.50
